sensor_id;sensor_type;location;lat;lon;timestamp;P1;durP1;ratioP1;P2;durP2;ratioP2
40871;SDS011;26591;43.264;26.940;2023-04-01T00:00:57;18.92;;;10.90;;
40871;SDS011;26591;43.264;26.940;2023-04-01T00:03:23;14.93;;;11.10;;
40871;SDS011;26591;43.264;26.940;2023-04-01T00:05:50;20.10;;;13.05;;
40871;SDS011;26591;43.264;26.940;2023-04-01T00:08:16;17.75;;;12.15;;
40871;SDS011;26591;43.264;26.940;2023-04-01T00:10:43;16.65;;;10.93;;
40871;SDS011;26591;43.264;26.940;2023-04-01T00:13:08;16.60;;;10.88;;
40871;SDS011;26591;43.264;26.940;2023-04-01T00:18:43;14.05;;;7.57;;
40871;SDS011;26591;43.264;26.940;2023-04-01T00:21:09;13.45;;;7.43;;
40871;SDS011;26591;43.264;26.940;2023-04-01T00:23:34;14.60;;;9.25;;
40871;SDS011;26591;43.264;26.940;2023-04-01T00:26:01;11.85;;;7.30;;
40871;SDS011;26591;43.264;26.940;2023-04-01T00:28:27;12.68;;;6.97;;
40871;SDS011;26591;43.264;26.940;2023-04-01T00:30:53;12.25;;;6.07;;
40871;SDS011;26591;43.264;26.940;2023-04-01T00:33:19;13.75;;;5.40;;
40871;SDS011;26591;43.264;26.940;2023-04-01T00:35:45;18.08;;;4.85;;
40871;SDS011;26591;43.264;26.940;2023-04-01T00:38:11;9.57;;;4.28;;
40871;SDS011;26591;43.264;26.940;2023-04-01T00:40:38;11.82;;;4.57;;
40871;SDS011;26591;43.264;26.940;2023-04-01T00:43:18;9.48;;;3.83;;
40871;SDS011;26591;43.264;26.940;2023-04-01T00:45:48;10.30;;;4.35;;
40871;SDS011;26591;43.264;26.940;2023-04-01T00:48:15;8.65;;;4.53;;
40871;SDS011;26591;43.264;26.940;2023-04-01T00:50:44;11.85;;;4.32;;
40871;SDS011;26591;43.264;26.940;2023-04-01T00:53:14;14.82;;;5.18;;
40871;SDS011;26591;43.264;26.940;2023-04-01T00:55:41;11.20;;;6.53;;
40871;SDS011;26591;43.264;26.940;2023-04-01T00:58:14;6.88;;;4.82;;
40871;SDS011;26591;43.264;26.940;2023-04-01T01:00:43;10.90;;;4.68;;
40871;SDS011;26591;43.264;26.940;2023-04-01T01:03:10;7.68;;;4.55;;
40871;SDS011;26591;43.264;26.940;2023-04-01T01:08:23;10.70;;;3.92;;
40871;SDS011;26591;43.264;26.940;2023-04-01T01:10:58;12.50;;;4.35;;
40871;SDS011;26591;43.264;26.940;2023-04-01T01:13:30;8.90;;;4.68;;
40871;SDS011;26591;43.264;26.940;2023-04-01T01:16:25;8.75;;;4.38;;
40871;SDS011;26591;43.264;26.940;2023-04-01T01:24:00;12.07;;;4.65;;
40871;SDS011;26591;43.264;26.940;2023-04-01T01:37:56;13.02;;;5.88;;
40871;SDS011;26591;43.264;26.940;2023-04-01T01:40:25;12.07;;;5.75;;
40871;SDS011;26591;43.264;26.940;2023-04-01T01:42:53;12.63;;;5.53;;
40871;SDS011;26591;43.264;26.940;2023-04-01T01:47:50;11.82;;;7.13;;
40871;SDS011;26591;43.264;26.940;2023-04-01T01:50:17;13.48;;;6.60;;
40871;SDS011;26591;43.264;26.940;2023-04-01T01:52:44;14.82;;;6.82;;
40871;SDS011;26591;43.264;26.940;2023-04-01T01:55:26;15.18;;;5.95;;
40871;SDS011;26591;43.264;26.940;2023-04-01T01:57:55;11.02;;;5.15;;
40871;SDS011;26591;43.264;26.940;2023-04-01T02:00:24;13.18;;;5.30;;
40871;SDS011;26591;43.264;26.940;2023-04-01T02:02:51;9.95;;;5.07;;
40871;SDS011;26591;43.264;26.940;2023-04-01T02:05:19;12.27;;;5.00;;
40871;SDS011;26591;43.264;26.940;2023-04-01T02:07:52;16.70;;;7.40;;
40871;SDS011;26591;43.264;26.940;2023-04-01T02:10:25;9.18;;;5.13;;
40871;SDS011;26591;43.264;26.940;2023-04-01T02:12:54;11.50;;;5.43;;
40871;SDS011;26591;43.264;26.940;2023-04-01T02:15:23;12.52;;;5.35;;
40871;SDS011;26591;43.264;26.940;2023-04-01T02:17:51;12.57;;;5.32;;
40871;SDS011;26591;43.264;26.940;2023-04-01T02:20:20;8.95;;;5.60;;
40871;SDS011;26591;43.264;26.940;2023-04-01T02:22:49;10.93;;;5.95;;
40871;SDS011;26591;43.264;26.940;2023-04-01T02:25:23;17.33;;;6.90;;
40871;SDS011;26591;43.264;26.940;2023-04-01T02:27:55;13.45;;;5.28;;
40871;SDS011;26591;43.264;26.940;2023-04-01T02:30:23;13.27;;;6.47;;
40871;SDS011;26591;43.264;26.940;2023-04-01T02:32:52;11.98;;;6.43;;
40871;SDS011;26591;43.264;26.940;2023-04-01T02:35:18;9.73;;;5.88;;
40871;SDS011;26591;43.264;26.940;2023-04-01T02:37:45;11.05;;;6.90;;
40871;SDS011;26591;43.264;26.940;2023-04-01T02:40:14;13.35;;;5.88;;
40871;SDS011;26591;43.264;26.940;2023-04-01T02:42:40;11.02;;;5.70;;
40871;SDS011;26591;43.264;26.940;2023-04-01T02:45:06;14.48;;;5.78;;
40871;SDS011;26591;43.264;26.940;2023-04-01T02:47:32;9.07;;;6.38;;
40871;SDS011;26591;43.264;26.940;2023-04-01T02:49:57;15.35;;;6.78;;
40871;SDS011;26591;43.264;26.940;2023-04-01T02:52:24;11.80;;;6.65;;
40871;SDS011;26591;43.264;26.940;2023-04-01T02:54:50;11.27;;;6.00;;
40871;SDS011;26591;43.264;26.940;2023-04-01T02:57:15;12.68;;;7.13;;
40871;SDS011;26591;43.264;26.940;2023-04-01T02:59:41;13.45;;;8.70;;
40871;SDS011;26591;43.264;26.940;2023-04-01T03:02:06;15.90;;;10.52;;
40871;SDS011;26591;43.264;26.940;2023-04-01T03:04:32;14.15;;;9.40;;
40871;SDS011;26591;43.264;26.940;2023-04-01T03:06:58;18.92;;;11.77;;
40871;SDS011;26591;43.264;26.940;2023-04-01T03:09:23;15.55;;;9.98;;
40871;SDS011;26591;43.264;26.940;2023-04-01T03:11:49;17.30;;;9.63;;
40871;SDS011;26591;43.264;26.940;2023-04-01T03:14:14;15.85;;;10.60;;
40871;SDS011;26591;43.264;26.940;2023-04-01T03:16:40;18.40;;;9.60;;
40871;SDS011;26591;43.264;26.940;2023-04-01T03:19:05;16.95;;;10.98;;
40871;SDS011;26591;43.264;26.940;2023-04-01T03:21:31;20.10;;;10.13;;
40871;SDS011;26591;43.264;26.940;2023-04-01T03:23:56;18.10;;;11.32;;
40871;SDS011;26591;43.264;26.940;2023-04-01T03:26:22;16.70;;;9.75;;
40871;SDS011;26591;43.264;26.940;2023-04-01T03:28:47;16.58;;;9.80;;
40871;SDS011;26591;43.264;26.940;2023-04-01T03:31:13;16.48;;;10.20;;
40871;SDS011;26591;43.264;26.940;2023-04-01T03:33:41;20.00;;;10.48;;
40871;SDS011;26591;43.264;26.940;2023-04-01T03:36:07;16.13;;;10.35;;
40871;SDS011;26591;43.264;26.940;2023-04-01T03:38:33;19.38;;;10.32;;
40871;SDS011;26591;43.264;26.940;2023-04-01T03:41:00;27.55;;;15.85;;
40871;SDS011;26591;43.264;26.940;2023-04-01T03:43:25;60.95;;;30.05;;
40871;SDS011;26591;43.264;26.940;2023-04-01T03:46:09;26.02;;;13.48;;
40871;SDS011;26591;43.264;26.940;2023-04-01T03:48:44;47.92;;;25.73;;
40871;SDS011;26591;43.264;26.940;2023-04-01T03:51:09;42.53;;;22.35;;
40871;SDS011;26591;43.264;26.940;2023-04-01T03:53:35;36.00;;;20.25;;
40871;SDS011;26591;43.264;26.940;2023-04-01T03:56:07;61.20;;;29.83;;
40871;SDS011;26591;43.264;26.940;2023-04-01T03:58:33;49.97;;;30.08;;
40871;SDS011;26591;43.264;26.940;2023-04-01T04:01:00;50.63;;;29.35;;
40871;SDS011;26591;43.264;26.940;2023-04-01T04:03:25;32.33;;;18.30;;
40871;SDS011;26591;43.264;26.940;2023-04-01T04:05:51;22.10;;;13.73;;
40871;SDS011;26591;43.264;26.940;2023-04-01T04:08:16;24.85;;;15.48;;
40871;SDS011;26591;43.264;26.940;2023-04-01T04:10:43;22.77;;;12.25;;
40871;SDS011;26591;43.264;26.940;2023-04-01T04:13:08;29.80;;;13.70;;
40871;SDS011;26591;43.264;26.940;2023-04-01T04:15:34;19.67;;;11.10;;
40871;SDS011;26591;43.264;26.940;2023-04-01T04:18:00;26.30;;;13.10;;
40871;SDS011;26591;43.264;26.940;2023-04-01T04:20:28;24.73;;;12.18;;
40871;SDS011;26591;43.264;26.940;2023-04-01T04:22:53;26.02;;;11.68;;
40871;SDS011;26591;43.264;26.940;2023-04-01T04:25:19;17.00;;;11.30;;
40871;SDS011;26591;43.264;26.940;2023-04-01T04:27:44;22.65;;;11.00;;
40871;SDS011;26591;43.264;26.940;2023-04-01T04:30:10;18.65;;;10.88;;
40871;SDS011;26591;43.264;26.940;2023-04-01T04:32:36;23.30;;;11.75;;
40871;SDS011;26591;43.264;26.940;2023-04-01T04:35:02;27.30;;;13.77;;
40871;SDS011;26591;43.264;26.940;2023-04-01T04:37:27;22.65;;;14.05;;
40871;SDS011;26591;43.264;26.940;2023-04-01T04:39:53;24.05;;;13.93;;
40871;SDS011;26591;43.264;26.940;2023-04-01T04:42:18;22.23;;;14.13;;
40871;SDS011;26591;43.264;26.940;2023-04-01T04:44:44;24.15;;;14.07;;
40871;SDS011;26591;43.264;26.940;2023-04-01T04:47:09;29.83;;;13.40;;
40871;SDS011;26591;43.264;26.940;2023-04-01T04:49:35;28.38;;;16.38;;
40871;SDS011;26591;43.264;26.940;2023-04-01T04:52:01;24.63;;;15.25;;
40871;SDS011;26591;43.264;26.940;2023-04-01T04:54:26;32.95;;;17.70;;
40871;SDS011;26591;43.264;26.940;2023-04-01T04:56:53;49.90;;;17.60;;
40871;SDS011;26591;43.264;26.940;2023-04-01T04:59:19;28.67;;;14.90;;
40871;SDS011;26591;43.264;26.940;2023-04-01T05:01:45;25.52;;;11.77;;
40871;SDS011;26591;43.264;26.940;2023-04-01T05:04:11;19.67;;;9.80;;
40871;SDS011;26591;43.264;26.940;2023-04-01T05:06:36;19.90;;;10.32;;
40871;SDS011;26591;43.264;26.940;2023-04-01T05:09:02;21.42;;;11.43;;
40871;SDS011;26591;43.264;26.940;2023-04-01T05:11:27;14.18;;;9.43;;
40871;SDS011;26591;43.264;26.940;2023-04-01T05:13:55;19.13;;;10.05;;
40871;SDS011;26591;43.264;26.940;2023-04-01T05:16:20;17.98;;;9.55;;
40871;SDS011;26591;43.264;26.940;2023-04-01T05:18:46;19.88;;;11.07;;
40871;SDS011;26591;43.264;26.940;2023-04-01T05:21:14;19.13;;;12.70;;
40871;SDS011;26591;43.264;26.940;2023-04-01T05:23:40;20.70;;;13.00;;
40871;SDS011;26591;43.264;26.940;2023-04-01T05:26:06;27.75;;;14.48;;
40871;SDS011;26591;43.264;26.940;2023-04-01T05:28:33;37.70;;;17.58;;
40871;SDS011;26591;43.264;26.940;2023-04-01T05:30:59;31.63;;;20.35;;
40871;SDS011;26591;43.264;26.940;2023-04-01T05:33:26;36.42;;;21.27;;
40871;SDS011;26591;43.264;26.940;2023-04-01T05:35:52;36.25;;;20.50;;
40871;SDS011;26591;43.264;26.940;2023-04-01T05:38:18;31.60;;;21.83;;
40871;SDS011;26591;43.264;26.940;2023-04-01T05:40:44;31.33;;;17.08;;
40871;SDS011;26591;43.264;26.940;2023-04-01T05:43:10;22.38;;;14.45;;
40871;SDS011;26591;43.264;26.940;2023-04-01T05:45:36;24.13;;;11.20;;
40871;SDS011;26591;43.264;26.940;2023-04-01T05:48:01;28.67;;;14.85;;
40871;SDS011;26591;43.264;26.940;2023-04-01T05:50:27;17.30;;;9.50;;
40871;SDS011;26591;43.264;26.940;2023-04-01T05:52:52;21.83;;;8.57;;
40871;SDS011;26591;43.264;26.940;2023-04-01T05:55:18;13.57;;;8.77;;
40871;SDS011;26591;43.264;26.940;2023-04-01T05:57:45;11.80;;;5.78;;
40871;SDS011;26591;43.264;26.940;2023-04-01T06:00:13;17.48;;;7.78;;
40871;SDS011;26591;43.264;26.940;2023-04-01T06:02:39;23.27;;;13.13;;
40871;SDS011;26591;43.264;26.940;2023-04-01T06:07:45;17.00;;;9.18;;
40871;SDS011;26591;43.264;26.940;2023-04-01T06:10:12;26.52;;;13.02;;
40871;SDS011;26591;43.264;26.940;2023-04-01T06:13:00;28.67;;;12.45;;
40871;SDS011;26591;43.264;26.940;2023-04-01T06:15:43;36.05;;;15.77;;
40871;SDS011;26591;43.264;26.940;2023-04-01T06:20:54;31.98;;;11.20;;
40871;SDS011;26591;43.264;26.940;2023-04-01T06:26:39;27.23;;;9.73;;
40871;SDS011;26591;43.264;26.940;2023-04-01T06:35:46;21.02;;;8.25;;
40871;SDS011;26591;43.264;26.940;2023-04-01T06:43:58;17.67;;;8.80;;
40871;SDS011;26591;43.264;26.940;2023-04-01T06:49:44;14.43;;;6.93;;
40871;SDS011;26591;43.264;26.940;2023-04-01T06:55:26;8.85;;;5.22;;
40871;SDS011;26591;43.264;26.940;2023-04-01T06:57:55;20.35;;;4.88;;
40871;SDS011;26591;43.264;26.940;2023-04-01T07:00:27;18.35;;;5.20;;
40871;SDS011;26591;43.264;26.940;2023-04-01T07:05:31;11.75;;;4.95;;
40871;SDS011;26591;43.264;26.940;2023-04-01T07:07:59;9.60;;;4.45;;
40871;SDS011;26591;43.264;26.940;2023-04-01T07:10:34;14.23;;;5.05;;
40871;SDS011;26591;43.264;26.940;2023-04-01T07:13:13;14.48;;;4.50;;
40871;SDS011;26591;43.264;26.940;2023-04-01T07:15:51;9.18;;;3.90;;
40871;SDS011;26591;43.264;26.940;2023-04-01T07:18:25;9.85;;;3.90;;
40871;SDS011;26591;43.264;26.940;2023-04-01T07:20:57;8.10;;;3.92;;
40871;SDS011;26591;43.264;26.940;2023-04-01T07:23:26;10.88;;;4.70;;
40871;SDS011;26591;43.264;26.940;2023-04-01T07:25:59;8.45;;;4.28;;
40871;SDS011;26591;43.264;26.940;2023-04-01T07:28:31;9.57;;;4.10;;
40871;SDS011;26591;43.264;26.940;2023-04-01T08:17:39;9.25;;;3.08;;
40871;SDS011;26591;43.264;26.940;2023-04-01T08:23:06;7.40;;;2.72;;
40871;SDS011;26591;43.264;26.940;2023-04-01T08:25:37;9.30;;;3.95;;
40871;SDS011;26591;43.264;26.940;2023-04-01T08:30:49;8.43;;;3.30;;
40871;SDS011;26591;43.264;26.940;2023-04-01T08:35:53;10.25;;;4.72;;
40871;SDS011;26591;43.264;26.940;2023-04-01T08:38:31;7.43;;;4.25;;
40871;SDS011;26591;43.264;26.940;2023-04-01T08:43:48;10.52;;;3.58;;
40871;SDS011;26591;43.264;26.940;2023-04-01T08:49:44;7.80;;;3.85;;
40871;SDS011;26591;43.264;26.940;2023-04-01T08:52:35;6.85;;;4.10;;
40871;SDS011;26591;43.264;26.940;2023-04-01T09:12:27;6.38;;;2.55;;
40871;SDS011;26591;43.264;26.940;2023-04-01T09:33:16;5.90;;;2.83;;
40871;SDS011;26591;43.264;26.940;2023-04-01T09:35:26;9.25;;;3.63;;
40871;SDS011;26591;43.264;26.940;2023-04-01T09:53:48;13.18;;;3.58;;
40871;SDS011;26591;43.264;26.940;2023-04-01T09:56:41;9.70;;;3.33;;
40871;SDS011;26591;43.264;26.940;2023-04-01T09:59:32;7.47;;;3.08;;
40871;SDS011;26591;43.264;26.940;2023-04-01T10:16:19;6.32;;;3.10;;
40871;SDS011;26591;43.264;26.940;2023-04-01T10:19:11;6.32;;;2.30;;
40871;SDS011;26591;43.264;26.940;2023-04-01T10:50:47;6.40;;;2.75;;
40871;SDS011;26591;43.264;26.940;2023-04-01T10:53:43;4.68;;;1.90;;
40871;SDS011;26591;43.264;26.940;2023-04-01T10:56:15;6.22;;;2.38;;
40871;SDS011;26591;43.264;26.940;2023-04-01T11:21:47;6.32;;;2.25;;
40871;SDS011;26591;43.264;26.940;2023-04-01T11:40:44;13.45;;;3.92;;
40871;SDS011;26591;43.264;26.940;2023-04-01T11:46:29;7.50;;;2.40;;
40871;SDS011;26591;43.264;26.940;2023-04-01T12:03:21;11.65;;;3.53;;
40871;SDS011;26591;43.264;26.940;2023-04-01T12:11:17;7.80;;;3.22;;
40871;SDS011;26591;43.264;26.940;2023-04-01T12:14:05;6.03;;;3.25;;
40871;SDS011;26591;43.264;26.940;2023-04-01T12:20:20;11.30;;;3.65;;
40871;SDS011;26591;43.264;26.940;2023-04-01T12:23:03;10.02;;;3.65;;
40871;SDS011;26591;43.264;26.940;2023-04-01T12:28:47;12.60;;;3.08;;
40871;SDS011;26591;43.264;26.940;2023-04-01T12:31:23;7.20;;;3.15;;
40871;SDS011;26591;43.264;26.940;2023-04-01T12:45:27;10.85;;;3.10;;
40871;SDS011;26591;43.264;26.940;2023-04-01T12:51:15;10.18;;;2.58;;
40871;SDS011;26591;43.264;26.940;2023-04-01T12:54:08;8.15;;;3.38;;
40871;SDS011;26591;43.264;26.940;2023-04-01T12:59:26;8.40;;;3.15;;
40871;SDS011;26591;43.264;26.940;2023-04-01T13:20:54;13.50;;;3.63;;
40871;SDS011;26591;43.264;26.940;2023-04-01T13:34:16;13.65;;;3.60;;
40871;SDS011;26591;43.264;26.940;2023-04-01T13:55:49;24.00;;;5.00;;
40871;SDS011;26591;43.264;26.940;2023-04-01T14:01:29;15.05;;;3.88;;
40871;SDS011;26591;43.264;26.940;2023-04-01T14:09:30;14.80;;;2.97;;
40871;SDS011;26591;43.264;26.940;2023-04-01T14:40:55;15.38;;;3.67;;
40871;SDS011;26591;43.264;26.940;2023-04-01T14:46:14;22.15;;;3.90;;
40871;SDS011;26591;43.264;26.940;2023-04-01T14:51:57;16.50;;;3.78;;
40871;SDS011;26591;43.264;26.940;2023-04-01T14:54:49;21.73;;;4.93;;
40871;SDS011;26591;43.264;26.940;2023-04-01T14:57:24;18.10;;;4.20;;
40871;SDS011;26591;43.264;26.940;2023-04-01T15:05:49;20.48;;;4.88;;
40871;SDS011;26591;43.264;26.940;2023-04-01T15:14:42;18.50;;;4.90;;
40871;SDS011;26591;43.264;26.940;2023-04-01T15:20:25;23.92;;;8.00;;
40871;SDS011;26591;43.264;26.940;2023-04-01T15:31:15;24.85;;;7.60;;
40871;SDS011;26591;43.264;26.940;2023-04-01T15:34:21;42.22;;;16.60;;
40871;SDS011;26591;43.264;26.940;2023-04-01T15:36:59;77.13;;;33.25;;
40871;SDS011;26591;43.264;26.940;2023-04-01T15:39:45;23.50;;;8.45;;
40871;SDS011;26591;43.264;26.940;2023-04-01T15:43:06;20.20;;;6.93;;
40871;SDS011;26591;43.264;26.940;2023-04-01T15:45:36;28.98;;;9.07;;
40871;SDS011;26591;43.264;26.940;2023-04-01T15:48:17;22.33;;;6.72;;
40871;SDS011;26591;43.264;26.940;2023-04-01T15:51:01;20.10;;;5.25;;
40871;SDS011;26591;43.264;26.940;2023-04-01T15:54:04;18.42;;;4.90;;
40871;SDS011;26591;43.264;26.940;2023-04-01T15:56:40;26.05;;;6.38;;
40871;SDS011;26591;43.264;26.940;2023-04-01T16:04:46;19.10;;;5.60;;
40871;SDS011;26591;43.264;26.940;2023-04-01T16:10:09;21.88;;;6.07;;
40871;SDS011;26591;43.264;26.940;2023-04-01T16:25:50;24.05;;;7.85;;
40871;SDS011;26591;43.264;26.940;2023-04-01T16:28:31;21.77;;;9.02;;
40871;SDS011;26591;43.264;26.940;2023-04-01T16:36:24;29.17;;;5.88;;
40871;SDS011;26591;43.264;26.940;2023-04-01T16:41:41;27.02;;;5.45;;
40871;SDS011;26591;43.264;26.940;2023-04-01T16:44:19;32.50;;;7.78;;
40871;SDS011;26591;43.264;26.940;2023-04-01T16:47:05;23.98;;;5.57;;
40871;SDS011;26591;43.264;26.940;2023-04-01T16:49:39;14.45;;;2.63;;
40871;SDS011;26591;43.264;26.940;2023-04-01T17:02:46;5.68;;;2.05;;
40871;SDS011;26591;43.264;26.940;2023-04-01T17:10:53;8.95;;;3.95;;
40871;SDS011;26591;43.264;26.940;2023-04-01T17:30:49;5.90;;;4.00;;
40871;SDS011;26591;43.264;26.940;2023-04-01T17:33:39;11.23;;;5.07;;
40871;SDS011;26591;43.264;26.940;2023-04-01T17:53:19;16.25;;;9.10;;
40871;SDS011;26591;43.264;26.940;2023-04-01T17:58:29;11.45;;;7.15;;
40871;SDS011;26591;43.264;26.940;2023-04-01T18:06:42;19.00;;;12.73;;
40871;SDS011;26591;43.264;26.940;2023-04-01T18:17:45;17.55;;;12.05;;
40871;SDS011;26591;43.264;26.940;2023-04-01T18:22:59;12.32;;;8.88;;
40871;SDS011;26591;43.264;26.940;2023-04-01T18:25:39;17.08;;;10.40;;
40871;SDS011;26591;43.264;26.940;2023-04-01T18:28:14;13.45;;;7.63;;
40871;SDS011;26591;43.264;26.940;2023-04-01T18:39:08;12.90;;;8.32;;
40871;SDS011;26591;43.264;26.940;2023-04-01T18:47:19;31.85;;;13.45;;
40871;SDS011;26591;43.264;26.940;2023-04-01T18:52:48;13.88;;;9.00;;
40871;SDS011;26591;43.264;26.940;2023-04-01T19:00:38;13.32;;;7.75;;
40871;SDS011;26591;43.264;26.940;2023-04-01T19:05:51;12.82;;;7.85;;
40871;SDS011;26591;43.264;26.940;2023-04-01T19:08:30;12.93;;;8.13;;
40871;SDS011;26591;43.264;26.940;2023-04-01T19:35:13;7.18;;;4.90;;
40871;SDS011;26591;43.264;26.940;2023-04-01T19:46:38;11.38;;;5.53;;
40871;SDS011;26591;43.264;26.940;2023-04-01T19:54:53;8.25;;;5.38;;
40871;SDS011;26591;43.264;26.940;2023-04-01T19:58:02;13.32;;;8.05;;
40871;SDS011;26591;43.264;26.940;2023-04-01T20:00:31;12.53;;;8.63;;
40871;SDS011;26591;43.264;26.940;2023-04-01T20:05:47;15.02;;;10.38;;
40871;SDS011;26591;43.264;26.940;2023-04-01T20:13:57;16.85;;;10.70;;
40871;SDS011;26591;43.264;26.940;2023-04-01T20:19:43;12.15;;;10.27;;
40871;SDS011;26591;43.264;26.940;2023-04-01T20:22:20;20.55;;;14.05;;
40871;SDS011;26591;43.264;26.940;2023-04-01T20:24:56;15.30;;;10.35;;
40871;SDS011;26591;43.264;26.940;2023-04-01T20:27:27;16.92;;;11.07;;
40871;SDS011;26591;43.264;26.940;2023-04-01T20:32:56;16.23;;;11.43;;
40871;SDS011;26591;43.264;26.940;2023-04-01T20:35:49;13.75;;;10.43;;
40871;SDS011;26591;43.264;26.940;2023-04-01T20:41:02;13.30;;;10.80;;
40871;SDS011;26591;43.264;26.940;2023-04-01T20:43:47;15.23;;;10.27;;
40871;SDS011;26591;43.264;26.940;2023-04-01T20:46:26;18.13;;;11.95;;
40871;SDS011;26591;43.264;26.940;2023-04-01T20:49:14;14.93;;;9.68;;
40871;SDS011;26591;43.264;26.940;2023-04-01T20:54:51;11.48;;;8.68;;
40871;SDS011;26591;43.264;26.940;2023-04-01T20:57:42;11.57;;;9.60;;
40871;SDS011;26591;43.264;26.940;2023-04-01T21:00:36;9.90;;;7.47;;
40871;SDS011;26591;43.264;26.940;2023-04-01T21:17:10;17.25;;;10.18;;
40871;SDS011;26591;43.264;26.940;2023-04-01T21:35:44;4.72;;;2.80;;
40871;SDS011;26591;43.264;26.940;2023-04-01T21:38:34;3.20;;;2.67;;
40871;SDS011;26591;43.264;26.940;2023-04-01T21:58:32;3.90;;;1.80;;
40871;SDS011;26591;43.264;26.940;2023-04-01T22:07:25;3.22;;;2.03;;
40871;SDS011;26591;43.264;26.940;2023-04-01T22:12:48;2.25;;;1.75;;
40871;SDS011;26591;43.264;26.940;2023-04-01T22:21:04;3.17;;;2.03;;
40871;SDS011;26591;43.264;26.940;2023-04-01T22:23:46;2.60;;;2.20;;
40871;SDS011;26591;43.264;26.940;2023-04-01T22:26:33;2.35;;;1.83;;
40871;SDS011;26591;43.264;26.940;2023-04-01T22:29:03;5.40;;;1.70;;
40871;SDS011;26591;43.264;26.940;2023-04-01T22:34:38;2.20;;;1.40;;
40871;SDS011;26591;43.264;26.940;2023-04-01T22:37:31;2.95;;;1.58;;
40871;SDS011;26591;43.264;26.940;2023-04-01T22:42:41;1.60;;;1.15;;
40871;SDS011;26591;43.264;26.940;2023-04-01T22:47:51;2.33;;;1.00;;
40871;SDS011;26591;43.264;26.940;2023-04-01T22:56:32;1.92;;;0.90;;
40871;SDS011;26591;43.264;26.940;2023-04-01T22:59:10;1.20;;;0.90;;
40871;SDS011;26591;43.264;26.940;2023-04-01T23:02:00;1.63;;;1.02;;
40871;SDS011;26591;43.264;26.940;2023-04-01T23:04:32;3.03;;;0.50;;
40871;SDS011;26591;43.264;26.940;2023-04-01T23:07:04;1.35;;;0.80;;
40871;SDS011;26591;43.264;26.940;2023-04-01T23:10:02;0.70;;;0.57;;
40871;SDS011;26591;43.264;26.940;2023-04-01T23:12:37;0.93;;;0.75;;
40871;SDS011;26591;43.264;26.940;2023-04-01T23:15:05;0.85;;;0.80;;
40871;SDS011;26591;43.264;26.940;2023-04-01T23:26:33;1.02;;;0.80;;
40871;SDS011;26591;43.264;26.940;2023-04-01T23:29:08;7.00;;;0.90;;
40871;SDS011;26591;43.264;26.940;2023-04-01T23:31:44;1.20;;;1.00;;
40871;SDS011;26591;43.264;26.940;2023-04-01T23:36:40;1.20;;;1.00;;
40871;SDS011;26591;43.264;26.940;2023-04-01T23:44:48;1.40;;;1.08;;
40871;SDS011;26591;43.264;26.940;2023-04-01T23:47:17;1.67;;;1.20;;
40871;SDS011;26591;43.264;26.940;2023-04-01T23:49:53;1.38;;;1.10;;
40871;SDS011;26591;43.264;26.940;2023-04-01T23:52:28;0.80;;;0.80;;
40871;SDS011;26591;43.264;26.940;2023-04-01T23:55:02;1.23;;;1.02;;
40871;SDS011;26591;43.264;26.940;2023-04-01T23:57:32;4.10;;;1.85;;
